createdAt,value
2018-10-09T00:00:32.295Z,6.21
2018-10-09T00:03:00.625Z,6.22
2018-10-09T00:05:28.580Z,6.23
2018-10-09T00:07:56.579Z,6.28
2018-10-09T00:10:24.625Z,6.29
2018-10-09T00:12:52.650Z,6.28
2018-10-09T00:15:20.714Z,6.27
2018-10-09T00:17:48.689Z,6.33
2018-10-09T00:20:24.023Z,6.32
2018-10-09T00:22:57.515Z,6.38
2018-10-09T00:25:25.789Z,6.29
2018-10-09T00:27:54.300Z,6.30
2018-10-09T00:30:22.370Z,6.30
2018-10-09T00:32:50.480Z,6.09
2018-10-09T00:35:18.445Z,6.69
2018-10-09T00:37:46.628Z,7.10
2018-10-09T00:40:14.840Z,7.79
2018-10-09T00:42:42.739Z,8.04
2018-10-09T00:45:10.719Z,8.32
2018-10-09T00:47:38.729Z,8.38
2018-10-09T00:50:07.052Z,8.52
2018-10-09T00:52:35.060Z,8.61
2018-10-09T00:55:03.099Z,8.64
2018-10-09T00:57:31.140Z,8.54
2018-10-09T00:59:59.145Z,8.10
2018-10-09T01:02:27.095Z,7.84
2018-10-09T01:04:55.095Z,7.84
2018-10-09T01:07:23.018Z,7.54
2018-10-09T01:09:51.050Z,7.47
2018-10-09T01:12:19.030Z,7.15
2018-10-09T01:14:47.045Z,6.96
2018-10-09T01:17:15.020Z,6.88
2018-10-09T01:19:43.055Z,6.74
2018-10-09T01:22:10.970Z,6.78
2018-10-09T01:24:39.275Z,6.66
2018-10-09T01:27:07.425Z,6.67
2018-10-09T01:29:35.411Z,6.70
2018-10-09T01:32:03.385Z,6.60
2018-10-09T01:34:31.395Z,6.44
2018-10-09T01:36:59.326Z,6.33
2018-10-09T01:39:27.490Z,6.23
2018-10-09T01:41:55.440Z,6.15
2018-10-09T01:44:23.475Z,6.13
2018-10-09T01:46:51.409Z,6.11
2018-10-09T01:49:19.401Z,6.19
2018-10-09T01:51:47.350Z,6.11
2018-10-09T01:54:15.310Z,6.06
2018-10-09T01:56:43.245Z,5.88
2018-10-09T01:59:11.155Z,5.92
2018-10-09T02:01:39.160Z,5.95
2018-10-09T02:04:07.175Z,5.87
2018-10-09T02:06:35.155Z,5.86
2018-10-09T02:09:03.655Z,5.85
2018-10-09T02:11:31.644Z,5.95
2018-10-09T02:13:59.595Z,5.88
2018-10-09T02:16:27.653Z,5.92
2018-10-09T02:18:55.650Z,5.84
2018-10-09T02:21:23.630Z,5.68
2018-10-09T02:23:51.565Z,5.76
2018-10-09T02:26:19.525Z,5.70
2018-10-09T02:28:47.470Z,5.72
2018-10-09T02:31:15.475Z,5.70
2018-10-09T02:33:43.466Z,5.68
2018-10-09T02:36:11.570Z,5.70
2018-10-09T02:38:39.546Z,5.65
2018-10-09T02:41:07.575Z,5.65
2018-10-09T02:43:35.516Z,5.65
2018-10-09T02:46:03.515Z,5.64
2018-10-09T02:48:31.479Z,5.56
2018-10-09T02:50:59.442Z,5.49
2018-10-09T02:53:27.410Z,5.37
2018-10-09T02:55:55.395Z,5.30
2018-10-09T02:58:23.330Z,5.34
2018-10-09T03:00:51.330Z,5.40
2018-10-09T03:03:19.274Z,5.41
2018-10-09T03:05:47.275Z,5.59
2018-10-09T03:08:15.214Z,5.59
2018-10-09T03:10:43.260Z,5.62
2018-10-09T03:13:11.175Z,5.68
2018-10-09T03:15:39.220Z,5.62
2018-10-09T03:18:07.149Z,5.56
2018-10-09T03:20:36.079Z,5.61
2018-10-09T03:23:04.100Z,5.62
2018-10-09T03:25:32.075Z,5.48
2018-10-09T03:28:00.045Z,5.50
2018-10-09T03:30:28.016Z,5.51
2018-10-09T03:32:56.025Z,5.67
2018-10-09T03:35:23.950Z,5.62
2018-10-09T03:37:52.076Z,5.58
2018-10-09T03:40:20.007Z,5.53
2018-10-09T03:42:47.995Z,5.49
2018-10-09T03:45:15.920Z,5.43
2018-10-09T03:47:43.951Z,5.54
2018-10-09T03:50:11.840Z,5.49
2018-10-09T03:52:39.845Z,5.41
2018-10-09T03:55:07.865Z,5.39
2018-10-09T03:57:35.853Z,5.30
2018-10-09T04:00:03.900Z,5.33
2018-10-09T04:02:31.859Z,5.25
2018-10-09T04:04:59.759Z,5.21
2018-10-09T04:07:27.775Z,5.14
2018-10-09T04:09:55.695Z,5.18
2018-10-09T04:12:23.674Z,5.19
2018-10-09T04:14:51.595Z,5.27
2018-10-09T04:17:19.635Z,5.28
2018-10-09T04:19:47.581Z,5.37
2018-10-09T04:22:18.330Z,5.39
2018-10-09T04:24:46.264Z,5.39
2018-10-09T04:27:14.260Z,5.50
2018-10-09T04:29:42.185Z,5.51
2018-10-09T04:32:10.189Z,5.48
2018-10-09T04:34:38.114Z,5.45
2018-10-09T04:37:06.530Z,5.55
2018-10-09T04:39:34.600Z,5.61
2018-10-09T04:42:02.604Z,5.65
2018-10-09T04:44:30.630Z,5.65
2018-10-09T04:46:58.589Z,5.75
2018-10-09T04:49:26.571Z,5.73
2018-10-09T04:51:54.495Z,5.71
2018-10-09T04:54:22.544Z,5.53
2018-10-09T04:56:50.520Z,5.53
2018-10-09T04:59:18.520Z,5.47
2018-10-09T05:01:46.500Z,5.30
2018-10-09T05:04:14.450Z,5.24
2018-10-09T05:06:42.432Z,5.18
2018-10-09T05:09:11.380Z,5.15
2018-10-09T05:11:39.390Z,5.24
2018-10-09T05:14:07.526Z,5.25
2018-10-09T05:16:35.870Z,5.25
2018-10-09T05:19:04.183Z,5.21
2018-10-09T05:21:32.195Z,5.23
2018-10-09T05:24:00.179Z,5.29
2018-10-09T05:26:28.175Z,5.37
2018-10-09T05:28:56.205Z,5.46
2018-10-09T05:31:24.437Z,5.49
2018-10-09T05:33:52.475Z,5.39
2018-10-09T05:36:20.475Z,5.37
2018-10-09T05:38:48.449Z,5.42
2018-10-09T05:41:16.365Z,5.40
2018-10-09T05:43:44.345Z,5.22
2018-10-09T05:46:12.334Z,5.33
2018-10-09T05:48:40.385Z,5.24
2018-10-09T05:51:08.755Z,5.21
2018-10-09T05:53:36.775Z,5.33
2018-10-09T05:56:04.766Z,5.38
2018-10-09T05:58:32.780Z,5.45
2018-10-09T06:01:00.794Z,5.45
2018-10-09T06:03:28.752Z,5.50
2018-10-09T06:05:56.786Z,5.52
2018-10-09T06:08:24.815Z,5.50
2018-10-09T06:10:52.900Z,5.60
2018-10-09T06:13:20.840Z,5.78
2018-10-09T06:15:48.893Z,5.79
2018-10-09T06:18:16.893Z,5.91
2018-10-09T06:20:44.926Z,5.97
2018-10-09T06:23:12.980Z,5.96
2018-10-09T06:25:40.970Z,6.23
2018-10-09T06:28:09.006Z,6.48
2018-10-09T06:30:37.070Z,6.98
2018-10-09T06:33:05.258Z,7.23
2018-10-09T06:35:33.268Z,7.48
2018-10-09T06:38:01.717Z,7.81
2018-10-09T06:40:30.066Z,8.19
2018-10-09T06:42:58.171Z,8.38
2018-10-09T06:45:26.167Z,8.17
2018-10-09T06:47:54.192Z,7.84
2018-10-09T06:50:22.238Z,7.78
2018-10-09T06:52:50.157Z,7.96
2018-10-09T06:55:18.127Z,8.21
2018-10-09T06:57:46.105Z,8.47
2018-10-09T07:00:14.096Z,9.01
2018-10-09T07:02:42.077Z,9.32
2018-10-09T07:05:10.111Z,9.74
2018-10-09T07:07:38.151Z,9.82
2018-10-09T07:10:06.213Z,9.92
2018-10-09T07:12:34.487Z,10.27
2018-10-09T07:15:02.586Z,9.88
2018-10-09T07:17:30.617Z,10.02
2018-10-09T07:19:58.650Z,9.93
2018-10-09T07:22:26.606Z,9.86
2018-10-09T07:24:54.766Z,9.94
2018-10-09T07:27:22.826Z,10.12
2018-10-09T07:29:50.810Z,10.92
2018-10-09T07:32:19.454Z,12.60
2018-10-09T07:34:47.530Z,13.67
2018-10-09T07:37:15.582Z,14.02
2018-10-09T07:39:43.835Z,14.38
2018-10-09T07:42:11.969Z,13.84
2018-10-09T07:44:40.026Z,13.58
2018-10-09T07:47:08.646Z,12.97
2018-10-09T07:49:36.840Z,12.82
2018-10-09T07:52:04.896Z,12.42
2018-10-09T07:54:32.921Z,12.58
2018-10-09T07:57:01.016Z,12.64
2018-10-09T07:59:29.021Z,13.13
2018-10-09T08:01:57.200Z,13.66
2018-10-09T08:04:25.191Z,14.42
2018-10-09T08:06:53.281Z,15.34
2018-10-09T08:09:21.277Z,16.11
2018-10-09T08:11:49.311Z,16.55
2018-10-09T08:14:17.321Z,15.09
2018-10-09T08:16:45.545Z,15.48
2018-10-09T08:19:13.626Z,15.86
2018-10-09T08:21:41.653Z,15.02
2018-10-09T08:24:09.614Z,14.61
2018-10-09T08:26:37.652Z,14.25
2018-10-09T08:29:05.676Z,13.93
2018-10-09T08:31:33.876Z,13.97
2018-10-09T08:34:01.773Z,13.85
2018-10-09T08:36:29.860Z,13.63
2018-10-09T08:38:57.817Z,13.55
2018-10-09T08:41:25.929Z,13.26
2018-10-09T08:43:53.915Z,12.91
2018-10-09T08:46:22.076Z,12.73
2018-10-09T08:48:50.136Z,12.85
2018-10-09T08:51:18.153Z,12.95
2018-10-09T08:53:46.177Z,12.93
2018-10-09T08:56:14.423Z,13.38
2018-10-09T08:58:42.423Z,13.50
2018-10-09T09:01:10.428Z,13.67
2018-10-09T09:03:38.434Z,13.62
2018-10-09T09:06:06.503Z,13.57
2018-10-09T09:08:34.531Z,13.74
2018-10-09T09:11:02.651Z,13.92
2018-10-09T09:13:30.563Z,13.96
2018-10-09T09:16:01.392Z,14.06
2018-10-09T09:21:09.787Z,14.69
2018-10-09T09:23:44.405Z,14.66
2018-10-09T09:26:12.911Z,14.58
2018-10-09T09:28:41.062Z,14.82
2018-10-09T09:31:09.077Z,15.12
2018-10-09T09:33:37.181Z,15.15
2018-10-09T09:36:05.286Z,15.09
2018-10-09T09:38:33.376Z,15.48
2018-10-09T09:41:01.601Z,15.55
2018-10-09T09:43:29.774Z,15.47
2018-10-09T09:45:57.944Z,15.48
2018-10-09T09:48:25.978Z,15.39
2018-10-09T09:50:54.051Z,15.32
2018-10-09T09:53:22.166Z,15.42
2018-10-09T09:55:50.186Z,15.25
2018-10-09T09:58:18.374Z,15.17
2018-10-09T10:00:51.776Z,15.24
2018-10-09T10:03:19.856Z,15.22
2018-10-09T10:05:48.013Z,15.39
2018-10-09T10:08:16.066Z,15.69
2018-10-09T10:10:44.171Z,15.72
2018-10-09T10:13:12.356Z,15.58
2018-10-09T10:15:40.446Z,15.53
2018-10-09T10:18:08.543Z,15.66
2018-10-09T10:20:36.608Z,15.69
2018-10-09T10:23:04.814Z,15.82
2018-10-09T10:25:33.707Z,16.04
2018-10-09T10:28:02.448Z,16.04
2018-10-09T10:30:30.895Z,16.03
2018-10-09T10:32:59.589Z,16.15
2018-10-09T10:35:28.425Z,16.42
2018-10-09T10:37:57.656Z,16.30
2018-10-09T10:40:26.706Z,16.21
2018-10-09T10:42:55.869Z,16.13
2018-10-09T10:45:24.434Z,16.16
2018-10-09T10:47:54.544Z,16.30
2018-10-09T10:50:23.269Z,16.48
2018-10-09T10:52:51.848Z,16.62
2018-10-09T10:55:28.648Z,17.09
2018-10-09T10:57:57.675Z,17.84
2018-10-09T11:00:26.312Z,18.78
2018-10-09T11:02:55.308Z,18.88
2018-10-09T11:05:24.240Z,19.36
2018-10-09T11:07:53.235Z,20.26
2018-10-09T11:10:21.878Z,20.31
2018-10-09T11:12:50.526Z,20.84
2018-10-09T11:15:19.095Z,20.87
2018-10-09T11:17:47.857Z,20.26
2018-10-09T11:20:28.309Z,19.97
2018-10-09T11:22:56.944Z,20.08
2018-10-09T11:25:25.397Z,19.52
2018-10-09T11:27:54.174Z,19.51
2018-10-09T11:30:22.587Z,19.35
2018-10-09T11:32:51.408Z,19.46
2018-10-09T11:35:21.779Z,19.68
2018-10-09T11:37:50.813Z,19.95
2018-10-09T11:40:19.347Z,20.16
2018-10-09T11:42:48.317Z,20.11
2018-10-09T11:45:17.387Z,20.11
2018-10-09T11:47:45.994Z,19.90
2018-10-09T11:50:14.515Z,19.96
2018-10-09T11:52:43.486Z,19.93
2018-10-09T11:55:12.030Z,19.76
2018-10-09T11:57:43.167Z,19.79
2018-10-09T12:00:11.767Z,19.58
2018-10-09T12:02:40.299Z,19.62
2018-10-09T12:05:08.868Z,19.63
2018-10-09T12:07:37.468Z,19.81
2018-10-09T12:10:05.988Z,19.80
2018-10-09T12:12:34.486Z,19.50
2018-10-09T12:15:03.508Z,19.44
2018-10-09T12:17:32.194Z,19.50
2018-10-09T12:20:00.948Z,19.47
2018-10-09T12:22:29.417Z,19.57
2018-10-09T12:24:58.112Z,19.63
2018-10-09T12:27:26.652Z,19.52
2018-10-09T12:29:55.242Z,19.70
2018-10-09T12:32:23.695Z,19.77
2018-10-09T12:34:52.228Z,19.89
2018-10-09T12:37:21.658Z,19.81
2018-10-09T12:39:50.250Z,19.86
2018-10-09T12:42:18.754Z,19.96
2018-10-09T12:44:47.317Z,19.95
2018-10-09T12:47:15.907Z,19.90
2018-10-09T12:49:44.486Z,19.78
2018-10-09T12:52:13.156Z,19.61
2018-10-09T12:54:41.814Z,19.65
2018-10-09T12:57:10.735Z,19.56
2018-10-09T12:59:39.267Z,19.47
2018-10-09T13:02:07.787Z,19.34
2018-10-09T13:04:38.006Z,19.14
2018-10-09T13:07:06.534Z,18.95
2018-10-09T13:09:35.297Z,19.03
2018-10-09T13:12:03.948Z,18.95
2018-10-09T13:14:32.508Z,18.90
2018-10-09T13:17:01.112Z,18.93
2018-10-09T13:19:29.785Z,19.04
2018-10-09T13:21:58.790Z,19.07
2018-10-09T13:24:27.269Z,18.96
2018-10-09T13:26:56.048Z,18.99
2018-10-09T13:29:25.027Z,18.87
2018-10-09T13:31:53.687Z,18.99
2018-10-09T13:34:22.191Z,18.98
2018-10-09T13:36:51.027Z,18.92
2018-10-09T13:39:19.566Z,18.89
2018-10-09T13:41:48.157Z,18.82
2018-10-09T13:44:16.686Z,18.96
2018-10-09T13:46:49.289Z,18.87
2018-10-09T13:49:17.905Z,18.85
2018-10-09T13:51:46.475Z,18.75
2018-10-09T13:54:15.112Z,18.85
2018-10-09T13:56:43.702Z,18.83
2018-10-09T13:59:12.167Z,18.69
2018-10-09T14:01:40.727Z,18.84
2018-10-09T14:04:09.209Z,18.81
2018-10-09T14:06:37.845Z,18.77
2018-10-09T14:09:09.187Z,18.75
2018-10-09T14:11:38.073Z,18.79
2018-10-09T14:14:06.678Z,18.93
2018-10-09T14:16:35.336Z,18.95
2018-10-09T14:19:04.060Z,18.97
2018-10-09T14:21:32.747Z,19.02
2018-10-09T14:24:07.085Z,18.83
2018-10-09T14:26:35.687Z,18.82
2018-10-09T14:29:04.533Z,18.74
2018-10-09T14:31:34.361Z,18.96
2018-10-09T14:34:02.969Z,18.86
2018-10-09T14:36:32.287Z,18.90
2018-10-09T14:39:08.607Z,18.99
2018-10-09T14:42:16.698Z,18.76
2018-10-09T14:44:55.176Z,18.75
2018-10-09T14:50:44.873Z,18.49
2018-10-09T14:56:27.507Z,18.50
2018-10-09T14:58:56.173Z,18.48
2018-10-09T15:01:24.797Z,18.44
2018-10-09T15:03:53.742Z,18.31
2018-10-09T15:06:22.347Z,18.25
2018-10-09T15:08:50.982Z,18.40
2018-10-09T15:11:19.707Z,18.61
2018-10-09T15:13:48.272Z,18.64
2018-10-09T15:16:17.159Z,18.47
2018-10-09T15:18:45.792Z,18.31
2018-10-09T15:21:14.497Z,18.20
2018-10-09T15:23:43.135Z,18.12
2018-10-09T15:26:11.669Z,18.04
2018-10-09T15:28:40.246Z,17.95
2018-10-09T15:31:08.982Z,17.94
2018-10-09T15:33:37.488Z,17.90
2018-10-09T15:36:06.111Z,17.80
2018-10-09T15:38:34.640Z,17.71
2018-10-09T15:41:03.216Z,17.59
2018-10-09T15:43:31.646Z,17.51
2018-10-09T15:46:00.188Z,17.46
2018-10-09T15:48:28.735Z,17.35
2018-10-09T15:50:57.599Z,17.26
2018-10-09T15:53:26.107Z,17.15
2018-10-09T15:55:54.787Z,17.05
2018-10-09T15:58:23.419Z,17.05
2018-10-09T16:00:51.951Z,16.86
2018-10-09T16:03:20.478Z,16.76
2018-10-09T16:05:49.232Z,16.67
2018-10-09T16:08:17.880Z,16.60
2018-10-09T16:10:46.569Z,16.51
2018-10-09T16:13:16.072Z,16.43
2018-10-09T16:15:44.588Z,16.35
2018-10-09T16:18:12.976Z,16.41
2018-10-09T16:20:41.468Z,16.25
2018-10-09T16:23:09.967Z,16.13
2018-10-09T16:25:38.845Z,16.11
2018-10-09T16:28:07.468Z,16.03
2018-10-09T16:30:35.914Z,15.80
2018-10-09T16:33:04.514Z,16.07
2018-10-09T16:35:33.042Z,16.00
2018-10-09T16:38:01.540Z,15.91
2018-10-09T16:40:30.097Z,15.86
2018-10-09T16:42:58.636Z,15.90
2018-10-09T16:45:26.991Z,15.58
2018-10-09T16:47:55.603Z,15.64
2018-10-09T16:50:24.302Z,15.76
2018-10-09T16:52:52.900Z,15.68
2018-10-09T16:55:27.894Z,15.64
2018-10-09T16:57:56.395Z,15.48
2018-10-09T17:00:25.149Z,15.26
2018-10-09T17:02:53.942Z,15.10
2018-10-09T17:05:22.956Z,14.84
2018-10-09T17:07:51.948Z,15.24
2018-10-09T17:10:20.479Z,15.31
2018-10-09T17:12:49.020Z,15.11
2018-10-09T17:15:17.668Z,15.38
2018-10-09T17:17:46.333Z,15.32
2018-10-09T17:20:15.541Z,15.19
2018-10-09T17:22:44.095Z,15.06
2018-10-09T17:25:12.736Z,15.08
2018-10-09T17:27:41.234Z,15.03
2018-10-09T17:30:09.895Z,14.76
2018-10-09T17:32:38.774Z,14.61
2018-10-09T17:35:07.509Z,14.39
2018-10-09T17:37:36.099Z,14.23
2018-10-09T17:40:04.716Z,14.09
2018-10-09T17:42:33.378Z,13.98
2018-10-09T17:45:02.249Z,13.84
2018-10-09T17:47:30.865Z,13.78
2018-10-09T17:49:59.488Z,13.69
2018-10-09T17:52:28.182Z,13.61
2018-10-09T17:54:56.860Z,13.54
2018-10-09T17:57:25.422Z,13.51
2018-10-09T17:59:54.156Z,13.45
2018-10-09T18:02:22.769Z,13.38
2018-10-09T18:04:51.309Z,13.33
2018-10-09T18:07:19.911Z,13.21
2018-10-09T18:09:48.488Z,13.15
2018-10-09T18:12:17.267Z,13.11
2018-10-09T18:14:45.928Z,13.04
2018-10-09T18:17:14.529Z,13.00
2018-10-09T18:19:43.013Z,12.98
2018-10-09T18:22:11.713Z,12.85
2018-10-09T18:24:41.120Z,12.69
2018-10-09T18:27:09.971Z,12.66
2018-10-09T18:29:38.710Z,12.61
2018-10-09T18:32:07.246Z,12.59
2018-10-09T18:34:35.725Z,12.54
2018-10-09T18:37:04.385Z,12.42
2018-10-09T18:39:33.093Z,12.38
2018-10-09T18:42:02.057Z,12.44
2018-10-09T18:44:30.973Z,12.38
2018-10-09T18:46:59.476Z,12.37
2018-10-09T18:49:28.232Z,12.32
2018-10-09T18:51:56.906Z,12.40
2018-10-09T18:54:25.601Z,12.43
2018-10-09T18:56:54.295Z,12.30
2018-10-09T18:59:22.825Z,12.26
2018-10-09T19:01:51.228Z,12.24
2018-10-09T19:04:19.925Z,12.17
2018-10-09T19:06:48.725Z,12.12
2018-10-09T19:09:17.316Z,12.02
2018-10-09T19:11:45.730Z,11.97
2018-10-09T19:14:14.353Z,11.92
2018-10-09T19:16:42.919Z,11.92
2018-10-09T19:19:11.436Z,11.91
2018-10-09T19:21:40.126Z,11.74
2018-10-09T19:24:09.224Z,11.72
2018-10-09T19:26:38.077Z,11.73
2018-10-09T19:29:06.861Z,11.71
2018-10-09T19:31:35.856Z,11.70
2018-10-09T19:34:04.457Z,11.67
2018-10-09T19:36:33.059Z,11.64
2018-10-09T19:39:02.089Z,11.62
2018-10-09T19:41:30.663Z,11.55
2018-10-09T19:43:59.195Z,11.53
2018-10-09T19:46:27.680Z,11.47
2018-10-09T19:48:56.297Z,11.44
2018-10-09T19:51:27.858Z,11.36
2018-10-09T19:53:56.817Z,11.34
2018-10-09T19:56:25.586Z,11.33
2018-10-09T19:58:54.687Z,11.28
2018-10-09T20:01:23.446Z,11.27
2018-10-09T20:03:52.429Z,11.21
2018-10-09T20:06:21.006Z,11.19
2018-10-09T20:08:49.714Z,11.13
2018-10-09T20:11:18.349Z,11.07
2018-10-09T20:13:47.082Z,11.00
2018-10-09T20:16:15.630Z,11.06
2018-10-09T20:18:44.299Z,10.99
2018-10-09T20:21:12.927Z,10.85
2018-10-09T20:23:41.680Z,10.72
2018-10-09T20:26:10.251Z,10.73
2018-10-09T20:28:38.769Z,10.73
2018-10-09T20:31:07.217Z,10.78
2018-10-09T20:33:35.667Z,10.75
2018-10-09T20:36:04.180Z,10.67
2018-10-09T20:38:32.394Z,10.66
2018-10-09T20:41:00.748Z,10.63
2018-10-09T20:43:29.380Z,10.63
2018-10-09T20:45:57.975Z,10.64
2018-10-09T20:48:26.468Z,10.64
2018-10-09T20:50:54.988Z,10.50
2018-10-09T20:53:23.516Z,10.43
2018-10-09T20:55:51.969Z,10.40
2018-10-09T20:58:20.151Z,10.27
2018-10-09T21:00:48.503Z,10.29
2018-10-09T21:03:16.785Z,10.28
2018-10-09T21:05:45.260Z,10.30
2018-10-09T21:08:13.689Z,10.28
2018-10-09T21:10:42.122Z,10.19
2018-10-09T21:13:10.565Z,10.10
2018-10-09T21:15:39.064Z,9.99
2018-10-09T21:18:07.624Z,9.94
2018-10-09T21:20:35.919Z,9.99
2018-10-09T21:23:04.481Z,10.03
2018-10-09T21:25:32.702Z,10.05
2018-10-09T21:28:01.103Z,9.99
2018-10-09T21:30:29.514Z,10.14
2018-10-09T21:32:57.791Z,10.08
2018-10-09T21:35:32.705Z,9.99
2018-10-09T21:38:01.070Z,9.91
2018-10-09T21:40:29.543Z,9.89
2018-10-09T21:42:57.872Z,9.87
2018-10-09T21:45:26.193Z,9.86
2018-10-09T21:47:59.453Z,9.82
2018-10-09T21:50:28.096Z,9.77
2018-10-09T21:52:57.650Z,9.76
2018-10-09T21:55:26.408Z,9.75
2018-10-09T21:57:55.460Z,9.73
2018-10-09T22:00:23.836Z,9.70
2018-10-09T22:02:52.021Z,9.74
2018-10-09T22:05:20.405Z,9.72
2018-10-09T22:07:48.564Z,9.69
2018-10-09T22:10:16.842Z,9.65
2018-10-09T22:12:45.019Z,9.70
2018-10-09T22:15:13.330Z,9.62
2018-10-09T22:17:41.451Z,9.58
2018-10-09T22:20:09.784Z,9.60
2018-10-09T22:22:38.346Z,9.60
2018-10-09T22:25:06.728Z,9.49
2018-10-09T22:27:34.970Z,9.37
2018-10-09T22:30:03.287Z,9.29
2018-10-09T22:32:31.642Z,9.41
2018-10-09T22:35:00.011Z,9.26
2018-10-09T22:37:28.100Z,9.30
2018-10-09T22:39:56.300Z,9.26
2018-10-09T22:42:24.329Z,9.21
2018-10-09T22:44:52.424Z,9.26
2018-10-09T22:47:20.552Z,9.26
2018-10-09T22:49:48.579Z,9.26
2018-10-09T22:52:16.810Z,9.20
2018-10-09T22:54:51.188Z,9.09
2018-10-09T22:57:19.590Z,9.02
2018-10-09T22:59:47.870Z,9.02
2018-10-09T23:02:16.134Z,9.02
2018-10-09T23:04:44.548Z,9.05
2018-10-09T23:07:14.611Z,9.11
2018-10-09T23:09:44.745Z,9.02
2018-10-09T23:12:13.954Z,9.00
2018-10-09T23:14:44.891Z,9.01
2018-10-09T23:17:13.196Z,8.95
2018-10-09T23:19:41.198Z,8.93
2018-10-09T23:22:09.778Z,8.92
2018-10-09T23:24:37.759Z,8.91
2018-10-09T23:27:05.837Z,8.86
2018-10-09T23:29:33.801Z,8.82
2018-10-09T23:32:01.812Z,8.79
2018-10-09T23:34:29.806Z,8.78
2018-10-09T23:36:57.833Z,8.78
2018-10-09T23:39:25.766Z,8.73
2018-10-09T23:41:54.154Z,8.76
2018-10-09T23:44:22.138Z,8.75
2018-10-09T23:46:50.204Z,8.79
2018-10-09T23:49:18.333Z,8.78
2018-10-09T23:51:46.369Z,8.67
2018-10-09T23:54:14.381Z,8.48
2018-10-09T23:56:42.404Z,8.52
2018-10-09T23:59:10.398Z,8.53
